Time;durP1;ratioP1;P1;durP2;ratioP2;P2;SDS_P1;SDS_P2;PMS_P1;PMS_P2;Temp;Humidity;BMP_temperature;BMP_pressure;BME280_temperature;BME280_humidity;BME280_pressure;Samples;Min_cycle;Max_cycle;Signal;HPM_P1;HPM_P2
2022/12/26 00:00:54;;;;;;;10.93;8.93;;;;;;;;;;5012965;28;20660;-49
2022/12/26 00:03:20;;;;;;;10.57;9.47;;;;;;;;;;5012985;28;20260;-48
2022/12/26 00:05:47;;;;;;;12.37;10.10;;;;;;;;;;5012983;28;20230;-48
2022/12/26 00:08:13;;;;;;;12.83;10.47;;;;;;;;;;5013127;28;20204;-49
2022/12/26 00:10:40;;;;;;;14.50;10.73;;;;;;;;;;5013175;28;20968;-49
2022/12/26 00:13:06;;;;;;;15.73;11.63;;;;;;;;;;5012883;28;20201;-48
2022/12/26 00:15:32;;;;;;;13.07;10.13;;;;;;;;;;5013087;28;20561;-49
2022/12/26 00:17:58;;;;;;;15.70;11.60;;;;;;;;;;5013027;28;20699;-49
2022/12/26 00:20:24;;;;;;;16.27;11.73;;;;;;;;;;5013222;28;20210;-49
2022/12/26 00:22:51;;;;;;;16.40;12.43;;;;;;;;;;5012967;28;20201;-49
2022/12/26 00:25:17;;;;;;;18.80;12.40;;;;;;;;;;5013161;28;20471;-49
2022/12/26 00:27:43;;;;;;;19.23;12.90;;;;;;;;;;5012931;28;20277;-49
2022/12/26 00:30:09;;;;;;;17.80;13.03;;;;;;;;;;5013035;28;20740;-49
2022/12/26 00:32:35;;;;;;;18.93;13.60;;;;;;;;;;5012132;28;20236;-48
2022/12/26 00:35:56;;;;;;;17.97;12.80;;;;;;;;;;5012462;28;20241;-49
2022/12/26 00:38:16;;;;;;;15.93;12.00;;;;;;;;;;5008004;28;20201;-49
2022/12/26 00:40:43;;;;;;;15.13;11.77;;;;;;;;;;5012572;28;20267;-48
2022/12/26 00:43:09;;;;;;;17.67;12.50;;;;;;;;;;5012514;28;20231;-49
2022/12/26 00:45:36;;;;;;;17.20;12.53;;;;;;;;;;5012420;28;20234;-49
2022/12/26 00:48:05;;;;;;;21.60;14.77;;;;;;;;;;5012183;28;20670;-49
2022/12/26 00:50:31;;;;;;;23.03;14.10;;;;;;;;;;5012465;28;20198;-49
2022/12/26 00:52:57;;;;;;;18.63;13.43;;;;;;;;;;5012476;28;20648;-49
2022/12/26 00:55:24;;;;;;;17.00;11.60;;;;;;;;;;5012328;28;20219;-49
2022/12/26 00:57:50;;;;;;;18.10;13.00;;;;;;;;;;5012330;28;20557;-48
2022/12/26 01:00:16;;;;;;;17.50;12.70;;;;;;;;;;5012385;28;20204;-49
2022/12/26 01:02:42;;;;;;;18.30;12.90;;;;;;;;;;5012404;28;20204;-49
2022/12/26 01:05:10;;;;;;;17.17;12.47;;;;;;;;;;5011935;28;20197;-49
2022/12/26 01:07:37;;;;;;;18.37;12.47;;;;;;;;;;5012196;28;20316;-49
2022/12/26 01:10:03;;;;;;;18.47;12.93;;;;;;;;;;5012033;28;20201;-53
2022/12/26 01:12:30;;;;;;;19.57;13.50;;;;;;;;;;5012155;28;20214;-49
2022/12/26 01:14:56;;;;;;;17.50;11.90;;;;;;;;;;5012030;28;20256;-48
2022/12/26 01:17:22;;;;;;;18.40;12.77;;;;;;;;;;5012037;28;20668;-47
2022/12/26 01:19:48;;;;;;;18.63;13.43;;;;;;;;;;5012102;28;20220;-47
2022/12/26 01:22:14;;;;;;;18.60;13.03;;;;;;;;;;5012073;28;20223;-47
2022/12/26 01:24:40;;;;;;;16.10;12.33;;;;;;;;;;5011739;28;20209;-48
2022/12/26 01:27:06;;;;;;;18.60;12.80;;;;;;;;;;5011562;28;20268;-48
2022/12/26 01:29:34;;;;;;;18.43;12.53;;;;;;;;;;5011957;28;20229;-47
2022/12/26 01:32:00;;;;;;;18.67;12.90;;;;;;;;;;5011856;28;20197;-48
2022/12/26 01:34:26;;;;;;;15.10;11.30;;;;;;;;;;5011778;28;20229;-48
2022/12/26 01:36:52;;;;;;;16.23;12.00;;;;;;;;;;5011760;28;20611;-48
2022/12/26 01:39:18;;;;;;;17.47;11.97;;;;;;;;;;5011913;28;20238;-48
2022/12/26 01:41:44;;;;;;;15.27;11.37;;;;;;;;;;5011940;28;20198;-48
2022/12/26 01:44:25;;;;;;;16.63;12.50;;;;;;;;;;5011622;28;20300;-49
2022/12/26 01:46:52;;;;;;;18.97;13.47;;;;;;;;;;5011296;28;20237;-49
2022/12/26 01:49:21;;;;;;;16.47;11.57;;;;;;;;;;5011729;28;20201;-49
2022/12/26 01:51:50;;;;;;;15.90;12.27;;;;;;;;;;5011506;28;20285;-48
2022/12/26 01:54:17;;;;;;;15.03;12.20;;;;;;;;;;5011889;28;20206;-48
2022/12/26 01:56:44;;;;;;;16.53;12.10;;;;;;;;;;5011757;28;20186;-49
2022/12/26 01:59:13;;;;;;;18.90;13.30;;;;;;;;;;5011554;28;20206;-48
2022/12/26 02:01:41;;;;;;;30.73;14.30;;;;;;;;;;5011753;28;20213;-48
2022/12/26 02:06:55;;;;;;;27.43;14.23;;;;;;;;;;5011397;28;20237;-48
2022/12/26 02:09:22;;;;;;;22.07;13.97;;;;;;;;;;5011658;28;20208;-48
2022/12/26 02:11:49;;;;;;;24.77;14.07;;;;;;;;;;5011525;28;20201;-48
2022/12/26 02:14:15;;;;;;;23.90;14.17;;;;;;;;;;5011370;28;20198;-49
2022/12/26 02:16:42;;;;;;;26.23;15.37;;;;;;;;;;5011407;28;20281;-49
2022/12/26 02:19:17;;;;;;;28.50;15.00;;;;;;;;;;5011293;28;20201;-49
2022/12/26 02:21:56;;;;;;;24.20;13.43;;;;;;;;;;5011392;28;20201;-48
2022/12/26 02:24:35;;;;;;;28.30;15.27;;;;;;;;;;5011423;28;20206;-48
2022/12/26 02:27:19;;;;;;;29.33;15.70;;;;;;;;;;5011180;28;20750;-49
2022/12/26 02:30:00;;;;;;;31.57;16.47;;;;;;;;;;5011348;28;20197;-49
2022/12/26 02:32:34;;;;;;;31.17;15.53;;;;;;;;;;5011611;28;20205;-49
2022/12/26 02:35:04;;;;;;;38.17;15.77;;;;;;;;;;5011185;28;20214;-49
2022/12/26 02:37:41;;;;;;;34.07;17.03;;;;;;;;;;5011257;28;20296;-49
2022/12/26 02:40:14;;;;;;;29.40;14.90;;;;;;;;;;5010796;28;20287;-49
2022/12/26 02:42:44;;;;;;;39.57;16.17;;;;;;;;;;5010732;28;20202;-49
2022/12/26 02:48:07;;;;;;;28.57;15.90;;;;;;;;;;5011129;28;20193;-48
2022/12/26 03:13:32;;;;;;;31.03;16.73;;;;;;;;;;5014292;28;20631;-48
2022/12/26 03:18:47;;;;;;;30.10;16.13;;;;;;;;;;5014327;28;20204;-49
2022/12/26 03:21:16;;;;;;;30.37;16.90;;;;;;;;;;5014029;28;20336;-49
2022/12/26 03:23:44;;;;;;;33.77;16.73;;;;;;;;;;5014309;28;20205;-49
2022/12/26 03:30:47;;;;;;;30.53;17.07;;;;;;;;;;5014052;28;20648;-49
2022/12/26 03:31:42;;;;;;;31.17;16.87;;;;;;;;;;5013976;28;20236;-49
2022/12/26 03:34:17;;;;;;;27.10;15.40;;;;;;;;;;5013743;28;20237;-49
2022/12/26 03:36:49;;;;;;;23.70;14.53;;;;;;;;;;5014022;28;20197;-49
2022/12/26 04:19:22;;;;;;;26.90;15.83;;;;;;;;;;5013618;28;20233;-50
2022/12/26 04:46:18;;;;;;;19.80;14.57;;;;;;;;;;5012126;28;20332;-49
2022/12/26 04:51:29;;;;;;;21.67;15.07;;;;;;;;;;5012343;28;20236;-49
2022/12/26 04:53:55;;;;;;;20.27;14.57;;;;;;;;;;5012431;28;20229;-49
2022/12/26 04:56:21;;;;;;;18.63;13.90;;;;;;;;;;5012020;28;20656;-49
2022/12/26 04:58:49;;;;;;;20.00;14.33;;;;;;;;;;5012257;28;20232;-48
2022/12/26 05:09:35;;;;;;;23.83;16.33;;;;;;;;;;5012143;28;20626;-48
2022/12/26 05:12:01;;;;;;;19.43;15.10;;;;;;;;;;5012070;28;20284;-49
2022/12/26 05:14:30;;;;;;;17.77;14.17;;;;;;;;;;5012175;28;20197;-49
2022/12/26 05:30:45;;;;;;;19.70;13.97;;;;;;;;;;5012153;28;20236;-49
2022/12/26 05:35:56;;;;;;;22.47;14.67;;;;;;;;;;5011689;28;20209;-49
2022/12/26 05:38:22;;;;;;;23.03;16.50;;;;;;;;;;5011884;28;20656;-49
2022/12/26 05:40:48;;;;;;;23.87;16.37;;;;;;;;;;5011720;28;20242;-48
2022/12/26 05:43:14;;;;;;;19.20;14.93;;;;;;;;;;5011752;28;20201;-48
2022/12/26 05:45:40;;;;;;;20.53;16.17;;;;;;;;;;5011960;28;20761;-48
2022/12/26 05:48:08;;;;;;;18.60;14.50;;;;;;;;;;5011492;28;20212;-48
2022/12/26 05:50:34;;;;;;;21.83;16.03;;;;;;;;;;5011858;28;20210;-48
2022/12/26 05:53:00;;;;;;;20.97;15.47;;;;;;;;;;5011515;28;20209;-49
2022/12/26 05:55:26;;;;;;;19.67;14.50;;;;;;;;;;5011645;28;20284;-48
2022/12/26 05:57:52;;;;;;;21.47;15.43;;;;;;;;;;5011610;28;20201;-49
2022/12/26 06:00:18;;;;;;;19.37;15.00;;;;;;;;;;5011561;28;20525;-48
2022/12/26 06:02:44;;;;;;;21.43;15.87;;;;;;;;;;5011556;28;20656;-49
2022/12/26 06:05:11;;;;;;;19.60;15.30;;;;;;;;;;5011337;28;20236;-48
2022/12/26 06:07:37;;;;;;;21.80;15.67;;;;;;;;;;5011620;28;20233;-49
2022/12/26 06:10:05;;;;;;;19.20;15.17;;;;;;;;;;5011487;28;20204;-48
2022/12/26 06:12:31;;;;;;;20.70;14.93;;;;;;;;;;5011607;28;20276;-48
2022/12/26 06:14:57;;;;;;;20.10;14.63;;;;;;;;;;5011435;28;20296;-48
2022/12/26 06:17:23;;;;;;;18.93;14.60;;;;;;;;;;5011509;28;20201;-48
2022/12/26 06:19:49;;;;;;;20.13;14.63;;;;;;;;;;5011335;28;20742;-48
2022/12/26 06:22:16;;;;;;;17.87;14.03;;;;;;;;;;5011420;28;20284;-48
2022/12/26 06:24:42;;;;;;;17.83;13.63;;;;;;;;;;5011472;28;20210;-48
2022/12/26 06:27:08;;;;;;;19.00;13.50;;;;;;;;;;5011263;28;20313;-48
2022/12/26 06:29:34;;;;;;;17.10;12.80;;;;;;;;;;5011416;28;20198;-48
2022/12/26 06:32:00;;;;;;;15.97;12.40;;;;;;;;;;5013350;28;20569;-48
2022/12/26 06:34:26;;;;;;;16.73;12.80;;;;;;;;;;5014933;28;20308;-48
2022/12/26 06:36:54;;;;;;;17.30;12.73;;;;;;;;;;5014999;28;20213;-48
2022/12/26 06:39:21;;;;;;;14.70;11.87;;;;;;;;;;5014705;28;20256;-51
2022/12/26 06:41:47;;;;;;;14.70;12.20;;;;;;;;;;5014930;28;20193;-49
2022/12/26 06:44:13;;;;;;;15.70;12.20;;;;;;;;;;5014779;28;20201;-48
2022/12/26 06:46:39;;;;;;;15.47;12.23;;;;;;;;;;5014690;28;20462;-48
2022/12/26 06:49:05;;;;;;;22.40;16.37;;;;;;;;;;5014606;28;20622;-49
2022/12/26 06:51:32;;;;;;;15.87;12.53;;;;;;;;;;5014693;28;20208;-49
2022/12/26 06:53:59;;;;;;;18.27;13.03;;;;;;;;;;5014597;28;20288;-48
2022/12/26 06:56:27;;;;;;;17.47;13.13;;;;;;;;;;5014811;28;20540;-48
2022/12/26 06:58:53;;;;;;;14.80;11.90;;;;;;;;;;5014466;28;20296;-49
2022/12/26 07:01:20;;;;;;;16.83;12.90;;;;;;;;;;5014397;28;20289;-48
2022/12/26 07:03:46;;;;;;;15.00;12.47;;;;;;;;;;5014052;28;20310;-49
2022/12/26 07:06:16;;;;;;;15.50;12.50;;;;;;;;;;5014248;28;20766;-49
2022/12/26 07:08:42;;;;;;;14.43;11.70;;;;;;;;;;5014335;28;20618;-48
2022/12/26 07:11:12;;;;;;;15.27;12.00;;;;;;;;;;5014256;28;20197;-49
2022/12/26 07:13:39;;;;;;;20.67;15.07;;;;;;;;;;5014429;28;20268;-49
2022/12/26 07:16:06;;;;;;;20.10;16.20;;;;;;;;;;5014265;28;20197;-49
2022/12/26 07:18:32;;;;;;;16.50;13.33;;;;;;;;;;5014248;28;20225;-48
2022/12/26 07:20:58;;;;;;;14.77;12.33;;;;;;;;;;5014313;28;20190;-49
2022/12/26 07:23:24;;;;;;;16.57;12.87;;;;;;;;;;5014039;28;20204;-49
2022/12/26 07:25:50;;;;;;;14.67;11.43;;;;;;;;;;5014156;28;20236;-49
2022/12/26 07:28:15;;;;;;;14.63;10.87;;;;;;;;;;5013968;28;20205;-48
2022/12/26 07:30:47;;;;;;;15.53;10.60;;;;;;;;;;5014049;28;20683;-50
2022/12/26 07:33:13;;;;;;;17.43;13.33;;;;;;;;;;5013845;28;20202;-50
2022/12/26 07:35:39;;;;;;;16.73;12.30;;;;;;;;;;5013956;28;20221;-48
2022/12/26 07:38:05;;;;;;;14.03;10.80;;;;;;;;;;5013777;28;20240;-50
2022/12/26 07:40:31;;;;;;;14.40;10.37;;;;;;;;;;5013635;28;20723;-50
2022/12/26 07:42:57;;;;;;;13.70;10.70;;;;;;;;;;5013543;28;20221;-50
2022/12/26 07:45:23;;;;;;;13.60;10.20;;;;;;;;;;5013835;28;20236;-50
2022/12/26 07:47:53;;;;;;;14.53;10.97;;;;;;;;;;5013602;28;20224;-48
2022/12/26 07:50:19;;;;;;;14.70;10.53;;;;;;;;;;5013556;28;20225;-47
2022/12/26 07:52:45;;;;;;;13.83;10.40;;;;;;;;;;5013664;28;20197;-48
2022/12/26 07:55:11;;;;;;;15.43;10.60;;;;;;;;;;5013540;28;20202;-47
2022/12/26 07:57:37;;;;;;;16.50;11.23;;;;;;;;;;5013742;28;20695;-48
2022/12/26 08:00:04;;;;;;;18.00;11.50;;;;;;;;;;5013588;28;20223;-48
2022/12/26 08:02:30;;;;;;;15.67;11.60;;;;;;;;;;5013604;28;20201;-51
2022/12/26 08:04:57;;;;;;;18.60;13.20;;;;;;;;;;5013409;28;20276;-51
2022/12/26 08:07:23;;;;;;;18.53;11.83;;;;;;;;;;5013076;28;20237;-50
2022/12/26 08:09:49;;;;;;;16.53;12.10;;;;;;;;;;5013409;28;20201;-48
2022/12/26 08:12:15;;;;;;;19.17;12.27;;;;;;;;;;5013276;28;20229;-50
2022/12/26 08:14:41;;;;;;;18.67;13.50;;;;;;;;;;5013294;28;20193;-49
2022/12/26 08:17:07;;;;;;;19.03;13.53;;;;;;;;;;5013131;28;20693;-50
2022/12/26 08:19:33;;;;;;;20.00;13.97;;;;;;;;;;4999907;28;20292;-50
2022/12/26 08:22:00;;;;;;;20.83;14.57;;;;;;;;;;5012154;28;20301;-50
2022/12/26 08:24:26;;;;;;;18.47;13.67;;;;;;;;;;5012615;28;20294;-50
2022/12/26 08:26:52;;;;;;;19.67;14.20;;;;;;;;;;5012767;28;20700;-50
2022/12/26 08:29:18;;;;;;;16.97;12.77;;;;;;;;;;5010506;28;20198;-50
2022/12/26 08:31:44;;;;;;;18.63;13.70;;;;;;;;;;5010250;28;20726;-50
2022/12/26 08:34:12;;;;;;;14.93;11.10;;;;;;;;;;5012085;28;20722;-50
2022/12/26 08:36:38;;;;;;;17.30;12.27;;;;;;;;;;5012028;28;20671;-51
2022/12/26 08:39:05;;;;;;;17.30;10.70;;;;;;;;;;5011657;28;20234;-51
2022/12/26 08:41:31;;;;;;;17.57;12.37;;;;;;;;;;5012106;28;20225;-51
2022/12/26 08:43:57;;;;;;;13.13;11.77;;;;;;;;;;5012415;28;20672;-51
2022/12/26 08:46:23;;;;;;;11.93;10.73;;;;;;;;;;5012233;28;20229;-51
2022/12/26 08:48:50;;;;;;;11.47;9.93;;;;;;;;;;5010266;28;20289;-51
2022/12/26 08:51:17;;;;;;;11.57;10.23;;;;;;;;;;5011818;28;20297;-51
2022/12/26 08:53:45;;;;;;;11.97;10.80;;;;;;;;;;5011420;28;20672;-51
2022/12/26 08:56:14;;;;;;;12.87;11.30;;;;;;;;;;5011787;28;20699;-53
2022/12/26 08:58:40;;;;;;;14.03;11.83;;;;;;;;;;5011923;28;20213;-51
2022/12/26 09:01:07;;;;;;;12.57;11.37;;;;;;;;;;5011305;28;20202;-51
2022/12/26 09:03:33;;;;;;;12.83;11.50;;;;;;;;;;5011947;28;20232;-50
2022/12/26 09:05:59;;;;;;;13.40;12.00;;;;;;;;;;5011552;28;20218;-49
2022/12/26 09:08:25;;;;;;;13.10;11.70;;;;;;;;;;5011785;28;20201;-50
2022/12/26 09:10:51;;;;;;;13.70;12.30;;;;;;;;;;5009754;28;20194;-51
2022/12/26 09:13:19;;;;;;;13.07;11.77;;;;;;;;;;5011608;28;20611;-51
2022/12/26 09:15:45;;;;;;;13.70;12.27;;;;;;;;;;5011591;28;20304;-51
2022/12/26 09:18:11;;;;;;;13.77;12.20;;;;;;;;;;5011309;28;20966;-52
2022/12/26 09:20:37;;;;;;;13.60;12.20;;;;;;;;;;5011448;28;20773;-52
2022/12/26 09:23:03;;;;;;;14.20;12.70;;;;;;;;;;5011493;28;20198;-52
2022/12/26 09:25:29;;;;;;;15.13;12.40;;;;;;;;;;5011236;28;20198;-52
2022/12/26 09:27:55;;;;;;;14.17;12.63;;;;;;;;;;5011499;28;20231;-52
2022/12/26 09:30:22;;;;;;;15.03;12.47;;;;;;;;;;5011368;28;20198;-51
2022/12/26 09:32:48;;;;;;;13.10;11.70;;;;;;;;;;5011358;28;20204;-52
2022/12/26 09:35:15;;;;;;;13.73;11.53;;;;;;;;;;5011213;28;20220;-52
2022/12/26 09:37:40;;;;;;;13.57;12.17;;;;;;;;;;5011422;28;20284;-52
2022/12/26 09:40:10;;;;;;;12.23;11.03;;;;;;;;;;5011153;28;20336;-52
2022/12/26 09:42:39;;;;;;;10.60;9.53;;;;;;;;;;5011445;28;20629;-51
2022/12/26 09:45:08;;;;;;;13.97;11.17;;;;;;;;;;5011169;28;20216;-50
2022/12/26 09:47:37;;;;;;;10.97;9.87;;;;;;;;;;5011311;28;20243;-51
2022/12/26 09:50:07;;;;;;;10.40;9.33;;;;;;;;;;5011108;28;20201;-51
2022/12/26 09:52:38;;;;;;;11.17;9.97;;;;;;;;;;5011356;28;20209;-52
2022/12/26 09:55:06;;;;;;;10.20;9.20;;;;;;;;;;5011045;28;20211;-50
2022/12/26 09:57:35;;;;;;;11.07;8.60;;;;;;;;;;5011294;28;20284;-51
2022/12/26 10:00:03;;;;;;;9.43;8.43;;;;;;;;;;5010995;28;20564;-51
2022/12/26 10:02:30;;;;;;;8.00;7.30;;;;;;;;;;5010989;28;20202;-51
2022/12/26 10:04:57;;;;;;;9.10;7.60;;;;;;;;;;5011548;28;20198;-50
2022/12/26 10:07:26;;;;;;;8.77;7.87;;;;;;;;;;5015074;28;20228;-50
2022/12/26 10:09:56;;;;;;;7.50;6.80;;;;;;;;;;5015054;28;20202;-51
2022/12/26 10:12:28;;;;;;;7.17;6.47;;;;;;;;;;5014902;28;20208;-50
2022/12/26 10:14:56;;;;;;;7.93;7.10;;;;;;;;;;5012584;28;20224;-51
2022/12/26 10:17:27;;;;;;;10.40;6.80;;;;;;;;;;5013518;28;20194;-51
2022/12/26 10:20:01;;;;;;;8.47;6.30;;;;;;;;;;5014410;28;20276;-50
2022/12/26 10:22:36;;;;;;;8.00;7.20;;;;;;;;;;5014763;28;20210;-51
2022/12/26 10:25:07;;;;;;;6.90;6.03;;;;;;;;;;5014555;28;20197;-50
2022/12/26 10:27:39;;;;;;;6.20;5.53;;;;;;;;;;5014197;28;20595;-52
2022/12/26 10:30:07;;;;;;;7.50;6.80;;;;;;;;;;5014382;28;20304;-52
2022/12/26 10:32:36;;;;;;;7.43;6.07;;;;;;;;;;5014456;28;20240;-52
2022/12/26 10:35:15;;;;;;;9.23;7.80;;;;;;;;;;5014250;28;20249;-51
2022/12/26 10:37:41;;;;;;;6.47;5.87;;;;;;;;;;5014491;28;20820;-52
2022/12/26 10:40:15;;;;;;;7.23;6.03;;;;;;;;;;5014102;28;20237;-52
2022/12/26 10:42:42;;;;;;;8.20;7.47;;;;;;;;;;5014311;28;20215;-52
2022/12/26 10:45:13;;;;;;;7.13;6.43;;;;;;;;;;5014251;28;20201;-52
2022/12/26 10:47:41;;;;;;;4.87;4.13;;;;;;;;;;5014197;28;20268;-52
2022/12/26 10:50:14;;;;;;;4.90;4.50;;;;;;;;;;5013991;28;20276;-51
2022/12/26 10:52:40;;;;;;;5.23;4.50;;;;;;;;;;5014363;28;20300;-52
2022/12/26 10:55:12;;;;;;;5.27;4.77;;;;;;;;;;5012704;28;20278;-51
2022/12/26 10:57:40;;;;;;;5.07;4.67;;;;;;;;;;5014278;28;20210;-52
2022/12/26 11:00:13;;;;;;;6.50;4.83;;;;;;;;;;5014132;28;20264;-51
2022/12/26 11:02:39;;;;;;;4.73;4.20;;;;;;;;;;5014123;28;20225;-51
2022/12/26 11:05:06;;;;;;;4.03;3.73;;;;;;;;;;5013688;28;20233;-51
2022/12/26 11:07:35;;;;;;;4.17;3.43;;;;;;;;;;5013778;28;20316;-55
2022/12/26 11:10:02;;;;;;;3.43;3.13;;;;;;;;;;5013928;28;20260;-52
2022/12/26 11:12:33;;;;;;;4.20;3.77;;;;;;;;;;5014166;28;20206;-51
2022/12/26 11:15:01;;;;;;;3.87;3.43;;;;;;;;;;5013838;28;20201;-51
2022/12/26 11:17:29;;;;;;;5.90;4.20;;;;;;;;;;5013058;28;20198;-52
2022/12/26 11:20:10;;;;;;;3.50;3.20;;;;;;;;;;5013867;28;20208;-49
2022/12/26 11:22:37;;;;;;;6.73;3.70;;;;;;;;;;5013819;28;20198;-50
2022/12/26 11:25:15;;;;;;;5.63;3.27;;;;;;;;;;5013630;28;20209;-51
2022/12/26 11:27:42;;;;;;;6.67;3.53;;;;;;;;;;5013557;28;20642;-50
2022/12/26 11:30:10;;;;;;;5.23;3.07;;;;;;;;;;5013483;28;20214;-50
2022/12/26 11:32:36;;;;;;;4.07;3.30;;;;;;;;;;5013633;28;20233;-49
2022/12/26 11:35:03;;;;;;;4.20;3.10;;;;;;;;;;5013437;28;20300;-51
2022/12/26 11:37:30;;;;;;;6.37;3.43;;;;;;;;;;5013652;28;20564;-51
2022/12/26 11:39:58;;;;;;;5.30;3.27;;;;;;;;;;5013256;28;20299;-50
2022/12/26 11:42:25;;;;;;;4.60;2.90;;;;;;;;;;5013339;28;20225;-51
2022/12/26 11:44:54;;;;;;;5.10;3.20;;;;;;;;;;5013115;28;20568;-51
2022/12/26 11:47:20;;;;;;;5.20;3.10;;;;;;;;;;5012881;28;20234;-52
2022/12/26 11:49:51;;;;;;;4.10;2.63;;;;;;;;;;5013083;28;20229;-51
2022/12/26 11:52:32;;;;;;;5.67;2.80;;;;;;;;;;5013004;28;20252;-52
2022/12/26 11:54:59;;;;;;;4.00;2.60;;;;;;;;;;5013104;28;20219;-52
2022/12/26 11:57:27;;;;;;;4.30;2.63;;;;;;;;;;5012947;28;20194;-51
2022/12/26 11:59:55;;;;;;;4.40;2.80;;;;;;;;;;5013045;28;20204;-52
2022/12/26 12:02:23;;;;;;;4.73;2.63;;;;;;;;;;5012874;28;20208;-50
2022/12/26 12:04:50;;;;;;;4.60;2.50;;;;;;;;;;5013096;28;20621;-50
2022/12/26 12:07:23;;;;;;;4.17;2.37;;;;;;;;;;5012506;28;20257;-51
2022/12/26 12:09:50;;;;;;;3.13;2.17;;;;;;;;;;5013134;28;20272;-51
2022/12/26 12:12:21;;;;;;;2.50;2.30;;;;;;;;;;5012852;28;20533;-51
2022/12/26 12:14:54;;;;;;;5.87;2.60;;;;;;;;;;5012931;28;20252;-51
2022/12/26 12:17:23;;;;;;;2.90;2.27;;;;;;;;;;5012814;28;20264;-51
2022/12/26 12:19:57;;;;;;;4.77;2.23;;;;;;;;;;5012617;28;20419;-52
2022/12/26 12:22:43;;;;;;;5.70;2.10;;;;;;;;;;5012063;28;20200;-51
2022/12/26 12:25:23;;;;;;;5.17;2.43;;;;;;;;;;5012633;28;20574;-51
2022/12/26 12:27:52;;;;;;;5.30;1.93;;;;;;;;;;5012626;28;20693;-51
2022/12/26 12:30:19;;;;;;;4.10;2.30;;;;;;;;;;5011775;28;20563;-51
2022/12/26 12:32:55;;;;;;;3.03;2.20;;;;;;;;;;5012708;28;20198;-51
2022/12/26 12:35:26;;;;;;;6.70;2.13;;;;;;;;;;5012542;28;20256;-52
2022/12/26 12:38:00;;;;;;;3.93;2.53;;;;;;;;;;5012975;28;20275;-50
2022/12/26 12:40:31;;;;;;;5.60;2.63;;;;;;;;;;5012581;28;20242;-50
2022/12/26 12:43:05;;;;;;;3.97;2.50;;;;;;;;;;5012571;28;20711;-52
2022/12/26 12:45:32;;;;;;;5.73;2.80;;;;;;;;;;5012581;28;20237;-50
2022/12/26 12:48:04;;;;;;;5.53;2.90;;;;;;;;;;5012658;28;20313;-50
2022/12/26 12:50:34;;;;;;;2.90;2.37;;;;;;;;;;5012631;28;20209;-49
2022/12/26 12:53:04;;;;;;;3.13;2.57;;;;;;;;;;5012598;28;20213;-50
2022/12/26 12:55:37;;;;;;;4.07;2.50;;;;;;;;;;5012399;28;20271;-50
2022/12/26 12:58:07;;;;;;;4.00;2.37;;;;;;;;;;5012443;28;20221;-49
2022/12/26 13:00:38;;;;;;;3.27;1.97;;;;;;;;;;5012297;28;20245;-52
2022/12/26 13:03:11;;;;;;;2.33;2.00;;;;;;;;;;5012294;28;20190;-50
2022/12/26 13:05:40;;;;;;;3.47;2.00;;;;;;;;;;5012378;28;20260;-51
2022/12/26 13:08:07;;;;;;;4.33;2.10;;;;;;;;;;5011956;28;20401;-49
2022/12/26 13:10:35;;;;;;;2.37;2.10;;;;;;;;;;5012297;28;20271;-51
2022/12/26 13:13:19;;;;;;;4.27;2.30;;;;;;;;;;5012156;28;20201;-49
2022/12/26 13:15:48;;;;;;;3.50;1.90;;;;;;;;;;5012089;28;20687;-50
2022/12/26 13:18:16;;;;;;;3.00;2.20;;;;;;;;;;5011960;28;20202;-51
2022/12/26 13:20:44;;;;;;;3.17;2.30;;;;;;;;;;5011888;28;20198;-50
2022/12/26 13:26:08;;;;;;;3.10;2.07;;;;;;;;;;4992525;28;20217;-51
2022/12/26 13:28:37;;;;;;;4.13;2.13;;;;;;;;;;5011880;28;20199;-50
2022/12/26 13:31:04;;;;;;;2.67;2.00;;;;;;;;;;5011762;28;20201;-49
2022/12/26 13:33:31;;;;;;;2.83;1.83;;;;;;;;;;5011782;28;20201;-49
2022/12/26 13:35:58;;;;;;;3.47;1.90;;;;;;;;;;5011921;28;20194;-52
2022/12/26 13:38:28;;;;;;;5.87;1.80;;;;;;;;;;5011819;28;20209;-50
2022/12/26 13:43:53;;;;;;;5.40;2.27;;;;;;;;;;5011383;28;20221;-50
2022/12/26 13:43:57;;;;;;;4.00;1.70;;;;;;;;;;5011676;28;20251;-50
2022/12/26 13:46:36;;;;;;;5.00;1.43;;;;;;;;;;5011410;28;20263;-50
2022/12/26 13:49:03;;;;;;;3.90;1.43;;;;;;;;;;5011775;28;20201;-50
2022/12/26 13:51:43;;;;;;;5.70;1.70;;;;;;;;;;5011520;28;20267;-51
2022/12/26 13:54:10;;;;;;;4.77;2.17;;;;;;;;;;5011406;28;20232;-51
2022/12/26 13:56:54;;;;;;;2.13;1.53;;;;;;;;;;5011197;28;20193;-49
2022/12/26 13:59:24;;;;;;;3.33;1.50;;;;;;;;;;5011266;28;20209;-51
2022/12/26 14:01:55;;;;;;;3.97;1.37;;;;;;;;;;5010937;28;20201;-50
2022/12/26 14:04:37;;;;;;;2.13;1.37;;;;;;;;;;5008687;28;20325;-50
2022/12/26 14:07:12;;;;;;;3.07;1.30;;;;;;;;;;5011265;28;20228;-51
2022/12/26 14:09:43;;;;;;;3.30;1.70;;;;;;;;;;5011417;28;20651;-51
2022/12/26 14:12:15;;;;;;;2.83;1.40;;;;;;;;;;5011108;28;20200;-51
2022/12/26 14:14:46;;;;;;;4.50;1.57;;;;;;;;;;5011061;28;20252;-49
2022/12/26 14:17:20;;;;;;;4.13;1.50;;;;;;;;;;5010641;28;20680;-50
2022/12/26 14:19:52;;;;;;;4.80;1.70;;;;;;;;;;5010749;28;20193;-51
2022/12/26 14:22:22;;;;;;;3.57;1.57;;;;;;;;;;5010594;28;20641;-50
2022/12/26 14:24:58;;;;;;;4.87;1.57;;;;;;;;;;5010791;28;20205;-49
2022/12/26 14:27:31;;;;;;;3.50;1.67;;;;;;;;;;5010599;28;20236;-49
2022/12/26 14:30:05;;;;;;;4.70;1.63;;;;;;;;;;5010733;28;20202;-49
2022/12/26 14:32:38;;;;;;;3.30;1.50;;;;;;;;;;5010656;28;20256;-49
2022/12/26 14:35:07;;;;;;;5.37;1.60;;;;;;;;;;5010793;28;20217;-51
2022/12/26 14:37:40;;;;;;;5.00;2.93;;;;;;;;;;5010839;28;20240;-49
2022/12/26 14:40:16;;;;;;;4.37;1.50;;;;;;;;;;5008774;28;20237;-49
2022/12/26 14:43:09;;;;;;;5.93;1.67;;;;;;;;;;5010617;28;20280;-52
2022/12/26 14:45:40;;;;;;;4.20;1.97;;;;;;;;;;5010808;28;20209;-52
2022/12/26 14:48:21;;;;;;;3.57;1.70;;;;;;;;;;5010888;28;20645;-49
2022/12/26 14:50:49;;;;;;;2.73;1.40;;;;;;;;;;5010534;28;20201;-51
2022/12/26 14:53:33;;;;;;;3.53;1.47;;;;;;;;;;5013148;28;20617;-51
2022/12/26 14:56:00;;;;;;;3.50;1.50;;;;;;;;;;5014110;28;20209;-51
2022/12/26 14:58:37;;;;;;;2.37;1.40;;;;;;;;;;5014290;28;20285;-51
2022/12/26 15:01:21;;;;;;;5.80;1.63;;;;;;;;;;5013661;28;20687;-49
2022/12/26 15:03:50;;;;;;;7.13;1.47;;;;;;;;;;5013976;28;20206;-50
2022/12/26 15:06:40;;;;;;;3.87;1.60;;;;;;;;;;5013912;28;20197;-49
2022/12/26 15:09:24;;;;;;;3.00;1.20;;;;;;;;;;5013949;28;20193;-50
2022/12/26 15:12:11;;;;;;;4.30;1.30;;;;;;;;;;5013556;28;20615;-50
2022/12/26 15:14:48;;;;;;;1.97;1.27;;;;;;;;;;4978992;28;20210;-50
2022/12/26 15:17:17;;;;;;;6.80;1.70;;;;;;;;;;5013963;28;20205;-50
2022/12/26 15:20:09;;;;;;;3.23;1.50;;;;;;;;;;5014062;28;20289;-49
2022/12/26 15:22:55;;;;;;;6.80;4.10;;;;;;;;;;5013471;28;20200;-49
2022/12/26 15:25:34;;;;;;;9.87;6.17;;;;;;;;;;5013594;28;20205;-49
2022/12/26 15:28:25;;;;;;;110.67;64.27;;;;;;;;;;5013613;28;20699;-49
2022/12/26 15:31:04;;;;;;;6.27;2.60;;;;;;;;;;4940783;28;20209;-49
2022/12/26 15:33:35;;;;;;;4.13;1.70;;;;;;;;;;5013825;28;20201;-49
2022/12/26 15:36:04;;;;;;;4.20;2.10;;;;;;;;;;5013629;28;20203;-52
2022/12/26 15:38:34;;;;;;;5.03;3.17;;;;;;;;;;5013416;28;20235;-49
2022/12/26 15:41:04;;;;;;;4.00;3.47;;;;;;;;;;5013267;28;20260;-50
2022/12/26 15:43:41;;;;;;;4.17;2.00;;;;;;;;;;5013535;28;20229;-49
2022/12/26 15:46:13;;;;;;;4.73;3.30;;;;;;;;;;5013572;28;20240;-48
2022/12/26 15:48:53;;;;;;;5.07;2.00;;;;;;;;;;5013693;28;20208;-48
2022/12/26 15:51:28;;;;;;;3.27;1.67;;;;;;;;;;5015268;28;20248;-48
2022/12/26 15:54:00;;;;;;;5.57;3.27;;;;;;;;;;5001336;28;20313;-48
2022/12/26 15:56:48;;;;;;;5.13;1.60;;;;;;;;;;5009028;28;20200;-48
2022/12/26 15:59:37;;;;;;;4.30;1.60;;;;;;;;;;5009216;28;20584;-48
2022/12/26 16:02:10;;;;;;;6.73;1.90;;;;;;;;;;5012292;28;20197;-49
2022/12/26 16:04:39;;;;;;;5.53;2.20;;;;;;;;;;5003770;28;20204;-50
2022/12/26 16:07:07;;;;;;;3.57;2.03;;;;;;;;;;5006121;28;20232;-51
2022/12/26 16:09:43;;;;;;;6.47;1.90;;;;;;;;;;5016429;28;20286;-48
2022/12/26 16:12:20;;;;;;;6.00;2.33;;;;;;;;;;5031919;28;20200;-48
2022/12/26 16:14:46;;;;;;;6.60;2.03;;;;;;;;;;5032312;28;20197;-48
2022/12/26 16:17:18;;;;;;;3.97;2.30;;;;;;;;;;5032343;28;20211;-50
2022/12/26 16:19:45;;;;;;;5.17;2.90;;;;;;;;;;5032400;28;20562;-48
2022/12/26 16:25:00;;;;;;;5.87;2.43;;;;;;;;;;5030402;28;20247;-49
2022/12/26 16:27:26;;;;;;;5.63;2.37;;;;;;;;;;5031990;28;20282;-50
2022/12/26 16:29:54;;;;;;;5.03;2.00;;;;;;;;;;5032461;28;20208;-50
2022/12/26 16:32:25;;;;;;;7.90;2.00;;;;;;;;;;5032485;28;20311;-49
2022/12/26 16:34:51;;;;;;;3.80;1.73;;;;;;;;;;5031577;28;20307;-49
2022/12/26 16:37:19;;;;;;;3.47;1.67;;;;;;;;;;5031425;28;20197;-50
2022/12/26 16:39:45;;;;;;;5.57;3.30;;;;;;;;;;5031852;28;20283;-49
2022/12/26 16:42:27;;;;;;;5.63;2.90;;;;;;;;;;5031971;28;20204;-49
2022/12/26 16:44:54;;;;;;;2.90;1.77;;;;;;;;;;5031974;28;20247;-50
2022/12/26 16:47:26;;;;;;;7.83;3.53;;;;;;;;;;5032019;28;20225;-50
2022/12/26 16:49:56;;;;;;;7.87;2.47;;;;;;;;;;5032219;28;20208;-50
2022/12/26 16:52:30;;;;;;;7.37;3.27;;;;;;;;;;5025749;28;20259;-50
2022/12/26 16:54:56;;;;;;;7.97;2.53;;;;;;;;;;5032075;28;20197;-49